KBPT/BPT METAR and TAF weather

Enter ICAO airport designator
Station Type Date Time Source
KBPT METAR 2020/03/29 11:53 UTC NOAA

KBPT 291153Z 02003KT 10SM CLR 15/13 A3006 RMK AO2 SLP177 70003 T01500133 10178 20139 53019


Station Type Date Time Source
KBPT Decoded METAR 2020/03/29 11:53 UTC NOAA

SOUTHEAST TEXAS RGNL AIRPORT, TX, United States (KBPT) 29-95N 094-08W 5M
Mar 29, 2020 - 07:53 AM EDT / 2020.03.29 1153 UTC
Wind: from the NNE (020 degrees) at 3 MPH (3 KT):0
Visibility: 10 mile(s):0
Sky conditions: clear
Temperature: 59.0 F (15.0 C)
Dew Point: 55.9 F (13.3 C)
Relative Humidity: 89%
Pressure (altimeter): 30.06 in. Hg (1017 hPa)
Pressure tendency: 0.06 inches (1.9 hPa) higher than three hours ago
ob: KBPT 291153Z 02003KT 10SM CLR 15/13 A3006 RMK AO2 SLP177 70003 T01500133 10178 20139 53019
cycle: 12

Station Type Date Time Source
KBPT TAF 2020/03/29 12:22 UTC NOAA

TAF KBPT 291120Z 2912/3012 01003KT P6SM SCT250
FM291400 06010KT P6SM FEW250

Example: see airport list